sensor_id;sensor_type;location;lat;lon;timestamp;temperature;humidity
8178;DHT22;4130;48.740;9.132;2022-10-04T00:01:11;5.30;99.90
8178;DHT22;4130;48.740;9.132;2022-10-04T00:03:41;5.30;99.90
8178;DHT22;4130;48.740;9.132;2022-10-04T00:06:15;5.40;99.90
8178;DHT22;4130;48.740;9.132;2022-10-04T00:08:46;5.30;99.90
8178;DHT22;4130;48.740;9.132;2022-10-04T00:11:17;5.30;99.90
8178;DHT22;4130;48.740;9.132;2022-10-04T00:13:49;5.30;99.90
8178;DHT22;4130;48.740;9.132;2022-10-04T00:16:26;5.40;99.90
8178;DHT22;4130;48.740;9.132;2022-10-04T00:22:16;5.30;99.90
8178;DHT22;4130;48.740;9.132;2022-10-04T00:28:14;5.30;99.90
8178;DHT22;4130;48.740;9.132;2022-10-04T00:30:43;5.30;99.90
8178;DHT22;4130;48.740;9.132;2022-10-04T00:33:10;5.20;99.90
8178;DHT22;4130;48.740;9.132;2022-10-04T00:35:57;5.10;99.90
8178;DHT22;4130;48.740;9.132;2022-10-04T00:38:25;5.00;99.90
8178;DHT22;4130;48.740;9.132;2022-10-04T00:40:56;5.00;99.90
8178;DHT22;4130;48.740;9.132;2022-10-04T00:43:30;4.90;99.90
8178;DHT22;4130;48.740;9.132;2022-10-04T00:46:03;4.90;99.90
8178;DHT22;4130;48.740;9.132;2022-10-04T00:48:37;4.90;99.90
8178;DHT22;4130;48.740;9.132;2022-10-04T00:51:12;4.90;99.90
8178;DHT22;4130;48.740;9.132;2022-10-04T00:53:54;4.90;99.90
8178;DHT22;4130;48.740;9.132;2022-10-04T00:56:27;5.00;99.90
8178;DHT22;4130;48.740;9.132;2022-10-04T00:59:15;5.00;99.90
8178;DHT22;4130;48.740;9.132;2022-10-04T01:01:48;5.00;99.90
8178;DHT22;4130;48.740;9.132;2022-10-04T01:04:26;5.00;99.90
8178;DHT22;4130;48.740;9.132;2022-10-04T01:06:57;5.00;99.90
8178;DHT22;4130;48.740;9.132;2022-10-04T01:09:24;5.00;99.90
8178;DHT22;4130;48.740;9.132;2022-10-04T01:12:01;4.90;99.90
8178;DHT22;4130;48.740;9.132;2022-10-04T01:17:17;4.80;99.90
8178;DHT22;4130;48.740;9.132;2022-10-04T01:19:50;4.80;99.90
8178;DHT22;4130;48.740;9.132;2022-10-04T01:22:39;4.80;99.90
8178;DHT22;4130;48.740;9.132;2022-10-04T01:25:06;4.70;99.90
8178;DHT22;4130;48.740;9.132;2022-10-04T01:27:37;4.70;99.90
8178;DHT22;4130;48.740;9.132;2022-10-04T01:30:07;4.80;99.90
8178;DHT22;4130;48.740;9.132;2022-10-04T01:32:36;4.80;99.90
8178;DHT22;4130;48.740;9.132;2022-10-04T01:35:05;4.80;99.90
8178;DHT22;4130;48.740;9.132;2022-10-04T01:37:34;4.80;99.90
8178;DHT22;4130;48.740;9.132;2022-10-04T01:40:01;4.80;99.90
8178;DHT22;4130;48.740;9.132;2022-10-04T01:42:33;4.90;99.90
8178;DHT22;4130;48.740;9.132;2022-10-04T01:45:06;4.90;99.90
8178;DHT22;4130;48.740;9.132;2022-10-04T01:47:39;4.90;99.90
8178;DHT22;4130;48.740;9.132;2022-10-04T01:50:10;4.90;99.90
8178;DHT22;4130;48.740;9.132;2022-10-04T01:52:44;4.80;99.90
8178;DHT22;4130;48.740;9.132;2022-10-04T01:55:14;4.80;99.90
8178;DHT22;4130;48.740;9.132;2022-10-04T01:57:45;4.80;99.90
8178;DHT22;4130;48.740;9.132;2022-10-04T02:00:13;4.70;99.90
8178;DHT22;4130;48.740;9.132;2022-10-04T02:02:44;4.60;99.90
8178;DHT22;4130;48.740;9.132;2022-10-04T02:05:17;4.60;99.90
8178;DHT22;4130;48.740;9.132;2022-10-04T02:07:47;4.60;99.90
8178;DHT22;4130;48.740;9.132;2022-10-04T02:10:17;4.50;99.90
8178;DHT22;4130;48.740;9.132;2022-10-04T02:12:48;4.50;99.90
8178;DHT22;4130;48.740;9.132;2022-10-04T02:15:16;4.50;99.90
8178;DHT22;4130;48.740;9.132;2022-10-04T02:17:45;4.60;99.90
8178;DHT22;4130;48.740;9.132;2022-10-04T02:20:16;4.60;99.90
8178;DHT22;4130;48.740;9.132;2022-10-04T02:22:47;4.60;99.90
8178;DHT22;4130;48.740;9.132;2022-10-04T02:25:15;4.60;99.90
8178;DHT22;4130;48.740;9.132;2022-10-04T02:27:44;4.60;99.90
8178;DHT22;4130;48.740;9.132;2022-10-04T02:30:11;4.70;99.90
8178;DHT22;4130;48.740;9.132;2022-10-04T02:32:40;4.60;99.90
8178;DHT22;4130;48.740;9.132;2022-10-04T02:35:22;4.60;99.90
8178;DHT22;4130;48.740;9.132;2022-10-04T02:37:59;4.70;99.90
8178;DHT22;4130;48.740;9.132;2022-10-04T02:40:30;4.70;99.90
8178;DHT22;4130;48.740;9.132;2022-10-04T02:43:01;4.70;99.90
8178;DHT22;4130;48.740;9.132;2022-10-04T02:45:36;4.70;99.90
8178;DHT22;4130;48.740;9.132;2022-10-04T02:48:10;4.70;99.90
8178;DHT22;4130;48.740;9.132;2022-10-04T02:50:44;4.70;99.90
8178;DHT22;4130;48.740;9.132;2022-10-04T02:53:20;4.70;99.90
8178;DHT22;4130;48.740;9.132;2022-10-04T02:55:48;4.60;99.90
8178;DHT22;4130;48.740;9.132;2022-10-04T02:58:18;4.60;99.90
8178;DHT22;4130;48.740;9.132;2022-10-04T03:00:47;4.60;99.90
8178;DHT22;4130;48.740;9.132;2022-10-04T03:03:20;4.50;99.90
8178;DHT22;4130;48.740;9.132;2022-10-04T03:05:55;4.50;99.90
8178;DHT22;4130;48.740;9.132;2022-10-04T03:08:26;4.50;99.90
8178;DHT22;4130;48.740;9.132;2022-10-04T03:10:54;4.50;99.90
8178;DHT22;4130;48.740;9.132;2022-10-04T03:13:21;4.50;99.90
8178;DHT22;4130;48.740;9.132;2022-10-04T03:15:49;4.50;99.90
8178;DHT22;4130;48.740;9.132;2022-10-04T03:18:16;4.50;99.90
8178;DHT22;4130;48.740;9.132;2022-10-04T03:20:44;4.60;99.90
8178;DHT22;4130;48.740;9.132;2022-10-04T03:23:12;4.50;99.90
8178;DHT22;4130;48.740;9.132;2022-10-04T03:25:47;4.50;99.90
8178;DHT22;4130;48.740;9.132;2022-10-04T03:28:14;4.50;99.90
8178;DHT22;4130;48.740;9.132;2022-10-04T03:30:42;4.50;99.90
8178;DHT22;4130;48.740;9.132;2022-10-04T03:33:15;4.50;99.90
8178;DHT22;4130;48.740;9.132;2022-10-04T03:35:45;4.50;99.90
8178;DHT22;4130;48.740;9.132;2022-10-04T03:38:14;4.50;99.90
8178;DHT22;4130;48.740;9.132;2022-10-04T03:40:48;4.50;99.90
8178;DHT22;4130;48.740;9.132;2022-10-04T03:43:18;4.50;99.90
8178;DHT22;4130;48.740;9.132;2022-10-04T03:45:45;4.50;99.90
8178;DHT22;4130;48.740;9.132;2022-10-04T03:48:14;4.50;99.90
8178;DHT22;4130;48.740;9.132;2022-10-04T03:50:45;4.50;99.90
8178;DHT22;4130;48.740;9.132;2022-10-04T03:53:24;4.50;99.90
8178;DHT22;4130;48.740;9.132;2022-10-04T03:55:52;4.40;99.90
8178;DHT22;4130;48.740;9.132;2022-10-04T03:58:20;4.40;99.90
8178;DHT22;4130;48.740;9.132;2022-10-04T04:01:00;4.40;99.90
8178;DHT22;4130;48.740;9.132;2022-10-04T04:03:31;4.40;99.90
8178;DHT22;4130;48.740;9.132;2022-10-04T04:06:05;4.40;99.90
8178;DHT22;4130;48.740;9.132;2022-10-04T04:08:38;4.40;99.90
8178;DHT22;4130;48.740;9.132;2022-10-04T04:11:15;4.30;99.90
8178;DHT22;4130;48.740;9.132;2022-10-04T04:13:46;4.30;99.90
8178;DHT22;4130;48.740;9.132;2022-10-04T04:16:15;4.30;99.90
8178;DHT22;4130;48.740;9.132;2022-10-04T04:18:45;4.40;99.90
8178;DHT22;4130;48.740;9.132;2022-10-04T04:21:17;4.40;99.90
8178;DHT22;4130;48.740;9.132;2022-10-04T04:23:47;4.40;99.90
8178;DHT22;4130;48.740;9.132;2022-10-04T04:26:24;4.40;99.90
8178;DHT22;4130;48.740;9.132;2022-10-04T04:28:54;4.30;99.90
8178;DHT22;4130;48.740;9.132;2022-10-04T04:31:24;4.30;99.90
8178;DHT22;4130;48.740;9.132;2022-10-04T04:33:56;4.20;99.90
8178;DHT22;4130;48.740;9.132;2022-10-04T04:36:24;4.20;99.90
8178;DHT22;4130;48.740;9.132;2022-10-04T04:38:50;4.20;99.90
8178;DHT22;4130;48.740;9.132;2022-10-04T04:41:36;4.20;99.90
8178;DHT22;4130;48.740;9.132;2022-10-04T04:44:15;4.20;99.90
8178;DHT22;4130;48.740;9.132;2022-10-04T04:46:42;4.20;99.90
8178;DHT22;4130;48.740;9.132;2022-10-04T04:49:10;4.30;99.90
8178;DHT22;4130;48.740;9.132;2022-10-04T04:51:38;4.30;99.90
8178;DHT22;4130;48.740;9.132;2022-10-04T04:54:06;4.30;99.90
8178;DHT22;4130;48.740;9.132;2022-10-04T04:56:33;4.30;99.90
8178;DHT22;4130;48.740;9.132;2022-10-04T04:59:05;4.30;99.90
8178;DHT22;4130;48.740;9.132;2022-10-04T05:01:34;4.30;99.90
8178;DHT22;4130;48.740;9.132;2022-10-04T05:04:03;4.30;99.90
8178;DHT22;4130;48.740;9.132;2022-10-04T05:06:32;4.20;99.90
8178;DHT22;4130;48.740;9.132;2022-10-04T05:09:00;4.30;99.90
8178;DHT22;4130;48.740;9.132;2022-10-04T05:11:29;4.30;99.90
8178;DHT22;4130;48.740;9.132;2022-10-04T05:13:59;4.40;99.90
8178;DHT22;4130;48.740;9.132;2022-10-04T05:16:34;4.30;99.90
8178;DHT22;4130;48.740;9.132;2022-10-04T05:19:05;4.30;99.90
8178;DHT22;4130;48.740;9.132;2022-10-04T05:21:34;4.30;99.90
8178;DHT22;4130;48.740;9.132;2022-10-04T05:24:09;4.30;99.90
8178;DHT22;4130;48.740;9.132;2022-10-04T05:26:36;4.40;99.90
8178;DHT22;4130;48.740;9.132;2022-10-04T05:29:08;4.40;99.90
8178;DHT22;4130;48.740;9.132;2022-10-04T05:31:44;4.40;99.90
8178;DHT22;4130;48.740;9.132;2022-10-04T05:34:20;4.50;99.90
8178;DHT22;4130;48.740;9.132;2022-10-04T05:37:11;4.40;99.90
8178;DHT22;4130;48.740;9.132;2022-10-04T05:39:44;4.00;99.90
8178;DHT22;4130;48.740;9.132;2022-10-04T05:42:20;4.50;99.90
8178;DHT22;4130;48.740;9.132;2022-10-04T05:44:49;4.60;99.90
8178;DHT22;4130;48.740;9.132;2022-10-04T05:47:20;4.70;99.90
8178;DHT22;4130;48.740;9.132;2022-10-04T05:49:50;4.70;99.90
8178;DHT22;4130;48.740;9.132;2022-10-04T05:52:25;4.70;99.90
8178;DHT22;4130;48.740;9.132;2022-10-04T05:55:20;4.80;99.90
8178;DHT22;4130;48.740;9.132;2022-10-04T05:58:21;4.80;99.90
8178;DHT22;4130;48.740;9.132;2022-10-04T06:01:09;4.90;99.90
8178;DHT22;4130;48.740;9.132;2022-10-04T06:03:53;5.00;99.90
8178;DHT22;4130;48.740;9.132;2022-10-04T06:06:28;5.10;99.90
8178;DHT22;4130;48.740;9.132;2022-10-04T06:09:07;5.10;99.90
8178;DHT22;4130;48.740;9.132;2022-10-04T06:11:45;5.10;99.90
8178;DHT22;4130;48.740;9.132;2022-10-04T06:14:34;5.20;99.90
8178;DHT22;4130;48.740;9.132;2022-10-04T06:17:23;5.30;99.90
8178;DHT22;4130;48.740;9.132;2022-10-04T06:20:24;5.40;99.90
8178;DHT22;4130;48.740;9.132;2022-10-04T06:22:58;5.50;99.90
8178;DHT22;4130;48.740;9.132;2022-10-04T06:25:28;5.60;99.90
8178;DHT22;4130;48.740;9.132;2022-10-04T06:28:03;5.70;99.90
8178;DHT22;4130;48.740;9.132;2022-10-04T06:30:46;5.70;99.90
8178;DHT22;4130;48.740;9.132;2022-10-04T06:33:36;5.80;99.90
8178;DHT22;4130;48.740;9.132;2022-10-04T06:36:34;5.90;99.90
8178;DHT22;4130;48.740;9.132;2022-10-04T06:42:20;6.30;99.90
8178;DHT22;4130;48.740;9.132;2022-10-04T06:45:09;6.40;99.90
8178;DHT22;4130;48.740;9.132;2022-10-04T06:47:55;6.60;99.90
8178;DHT22;4130;48.740;9.132;2022-10-04T06:50:34;6.80;99.90
8178;DHT22;4130;48.740;9.132;2022-10-04T06:53:17;7.10;99.90
8178;DHT22;4130;48.740;9.132;2022-10-04T06:55:59;7.20;99.90
8178;DHT22;4130;48.740;9.132;2022-10-04T06:58:48;7.40;99.90
8178;DHT22;4130;48.740;9.132;2022-10-04T07:01:24;7.60;99.90
8178;DHT22;4130;48.740;9.132;2022-10-04T07:03:54;7.70;99.90
8178;DHT22;4130;48.740;9.132;2022-10-04T07:06:26;7.90;99.90
8178;DHT22;4130;48.740;9.132;2022-10-04T07:08:57;8.00;99.90
8178;DHT22;4130;48.740;9.132;2022-10-04T07:11:30;8.10;99.90
8178;DHT22;4130;48.740;9.132;2022-10-04T07:14:04;8.20;99.90
8178;DHT22;4130;48.740;9.132;2022-10-04T07:16:36;8.30;99.90
8178;DHT22;4130;48.740;9.132;2022-10-04T07:19:15;8.40;99.90
8178;DHT22;4130;48.740;9.132;2022-10-04T07:21:54;8.50;99.90
8178;DHT22;4130;48.740;9.132;2022-10-04T07:24:28;8.60;99.90
8178;DHT22;4130;48.740;9.132;2022-10-04T07:27:00;8.80;99.90
8178;DHT22;4130;48.740;9.132;2022-10-04T07:29:31;8.80;99.90
8178;DHT22;4130;48.740;9.132;2022-10-04T07:32:06;8.80;99.90
8178;DHT22;4130;48.740;9.132;2022-10-04T07:34:39;8.90;99.90
8178;DHT22;4130;48.740;9.132;2022-10-04T07:37:09;9.00;99.90
8178;DHT22;4130;48.740;9.132;2022-10-04T07:39:44;9.00;99.90
8178;DHT22;4130;48.740;9.132;2022-10-04T07:42:19;9.00;99.90
8178;DHT22;4130;48.740;9.132;2022-10-04T07:45:02;8.90;99.90
8178;DHT22;4130;48.740;9.132;2022-10-04T07:47:30;9.10;99.90
8178;DHT22;4130;48.740;9.132;2022-10-04T07:49:57;9.20;99.90
8178;DHT22;4130;48.740;9.132;2022-10-04T07:52:39;9.40;99.90
8178;DHT22;4130;48.740;9.132;2022-10-04T07:55:21;9.50;99.90
8178;DHT22;4130;48.740;9.132;2022-10-04T07:57:56;9.70;99.90
8178;DHT22;4130;48.740;9.132;2022-10-04T08:00:27;10.00;99.90
8178;DHT22;4130;48.740;9.132;2022-10-04T08:03:13;10.20;99.90
8178;DHT22;4130;48.740;9.132;2022-10-04T08:05:47;10.30;99.90
8178;DHT22;4130;48.740;9.132;2022-10-04T08:08:28;10.40;99.90
8178;DHT22;4130;48.740;9.132;2022-10-04T08:11:13;10.50;99.90
8178;DHT22;4130;48.740;9.132;2022-10-04T08:13:50;10.50;99.90
8178;DHT22;4130;48.740;9.132;2022-10-04T08:16:29;10.40;99.90
8178;DHT22;4130;48.740;9.132;2022-10-04T08:19:10;10.60;99.90
8178;DHT22;4130;48.740;9.132;2022-10-04T08:21:47;10.80;99.90
8178;DHT22;4130;48.740;9.132;2022-10-04T08:24:20;10.90;99.90
8178;DHT22;4130;48.740;9.132;2022-10-04T08:27:06;10.80;99.90
8178;DHT22;4130;48.740;9.132;2022-10-04T08:29:56;10.90;99.90
8178;DHT22;4130;48.740;9.132;2022-10-04T08:32:45;11.00;99.90
8178;DHT22;4130;48.740;9.132;2022-10-04T08:35:28;11.10;99.90
8178;DHT22;4130;48.740;9.132;2022-10-04T08:38:32;11.30;99.90
8178;DHT22;4130;48.740;9.132;2022-10-04T08:41:35;11.10;99.90
8178;DHT22;4130;48.740;9.132;2022-10-04T08:47:38;11.30;99.90
8178;DHT22;4130;48.740;9.132;2022-10-04T08:50:44;11.30;99.90
8178;DHT22;4130;48.740;9.132;2022-10-04T08:53:37;11.50;99.90
8178;DHT22;4130;48.740;9.132;2022-10-04T08:56:17;11.60;99.90
8178;DHT22;4130;48.740;9.132;2022-10-04T08:59:15;11.70;99.90
8178;DHT22;4130;48.740;9.132;2022-10-04T09:02:00;11.80;99.90
8178;DHT22;4130;48.740;9.132;2022-10-04T09:05:05;11.90;99.90
8178;DHT22;4130;48.740;9.132;2022-10-04T09:07:56;11.90;99.90
8178;DHT22;4130;48.740;9.132;2022-10-04T09:10:44;12.20;99.90
8178;DHT22;4130;48.740;9.132;2022-10-04T09:13:26;12.60;99.90
8178;DHT22;4130;48.740;9.132;2022-10-04T09:16:05;12.70;99.90
8178;DHT22;4130;48.740;9.132;2022-10-04T09:18:48;13.30;99.90
8178;DHT22;4130;48.740;9.132;2022-10-04T09:21:27;13.20;99.90
8178;DHT22;4130;48.740;9.132;2022-10-04T09:24:31;13.20;99.90
8178;DHT22;4130;48.740;9.132;2022-10-04T09:27:12;13.40;99.90
8178;DHT22;4130;48.740;9.132;2022-10-04T09:30:03;13.60;99.90
8178;DHT22;4130;48.740;9.132;2022-10-04T09:39:06;14.10;99.90
8178;DHT22;4130;48.740;9.132;2022-10-04T09:41:58;14.10;99.90
8178;DHT22;4130;48.740;9.132;2022-10-04T09:44:43;14.20;99.90
8178;DHT22;4130;48.740;9.132;2022-10-04T09:47:30;14.00;99.90
8178;DHT22;4130;48.740;9.132;2022-10-04T09:50:21;14.10;99.90
8178;DHT22;4130;48.740;9.132;2022-10-04T09:52:58;14.20;99.90
8178;DHT22;4130;48.740;9.132;2022-10-04T09:55:41;14.30;99.90
8178;DHT22;4130;48.740;9.132;2022-10-04T09:58:30;14.50;99.90
8178;DHT22;4130;48.740;9.132;2022-10-04T10:01:03;14.60;99.90
8178;DHT22;4130;48.740;9.132;2022-10-04T10:06:40;14.90;99.90
8178;DHT22;4130;48.740;9.132;2022-10-04T10:09:23;14.90;99.90
8178;DHT22;4130;48.740;9.132;2022-10-04T10:12:37;15.00;99.90
8178;DHT22;4130;48.740;9.132;2022-10-04T10:15:30;15.20;99.90
8178;DHT22;4130;48.740;9.132;2022-10-04T10:18:09;15.20;99.90
8178;DHT22;4130;48.740;9.132;2022-10-04T10:21:03;15.50;99.90
8178;DHT22;4130;48.740;9.132;2022-10-04T10:23:52;15.40;99.90
8178;DHT22;4130;48.740;9.132;2022-10-04T10:26:37;15.70;99.90
8178;DHT22;4130;48.740;9.132;2022-10-04T10:32:42;15.80;99.90
8178;DHT22;4130;48.740;9.132;2022-10-04T10:35:23;15.90;99.90
8178;DHT22;4130;48.740;9.132;2022-10-04T10:38:06;15.90;99.90
8178;DHT22;4130;48.740;9.132;2022-10-04T10:40:46;15.90;99.90
8178;DHT22;4130;48.740;9.132;2022-10-04T10:43:33;16.00;99.90
8178;DHT22;4130;48.740;9.132;2022-10-04T10:46:17;16.00;99.90
8178;DHT22;4130;48.740;9.132;2022-10-04T10:49:02;16.20;99.90
8178;DHT22;4130;48.740;9.132;2022-10-04T10:51:55;16.30;99.90
8178;DHT22;4130;48.740;9.132;2022-10-04T10:57:41;16.60;99.90
8178;DHT22;4130;48.740;9.132;2022-10-04T11:00:18;16.70;99.90
8178;DHT22;4130;48.740;9.132;2022-10-04T11:03:07;16.80;99.90
8178;DHT22;4130;48.740;9.132;2022-10-04T11:06:04;16.80;99.90
8178;DHT22;4130;48.740;9.132;2022-10-04T11:12:03;17.00;99.90
8178;DHT22;4130;48.740;9.132;2022-10-04T11:14:54;17.10;99.90
8178;DHT22;4130;48.740;9.132;2022-10-04T11:20:43;17.20;99.90
8178;DHT22;4130;48.740;9.132;2022-10-04T11:27:03;17.40;99.90
8178;DHT22;4130;48.740;9.132;2022-10-04T11:29:53;17.40;99.90
8178;DHT22;4130;48.740;9.132;2022-10-04T11:33:08;17.50;99.90
8178;DHT22;4130;48.740;9.132;2022-10-04T11:36:13;17.80;99.90
8178;DHT22;4130;48.740;9.132;2022-10-04T11:39:01;17.90;99.90
8178;DHT22;4130;48.740;9.132;2022-10-04T11:41:41;17.80;99.90
8178;DHT22;4130;48.740;9.132;2022-10-04T11:44:42;17.80;99.90
8178;DHT22;4130;48.740;9.132;2022-10-04T11:47:23;17.80;99.90
8178;DHT22;4130;48.740;9.132;2022-10-04T11:50:02;18.10;99.90
8178;DHT22;4130;48.740;9.132;2022-10-04T11:55:47;17.90;99.90
8178;DHT22;4130;48.740;9.132;2022-10-04T11:58:27;18.10;99.90
8178;DHT22;4130;48.740;9.132;2022-10-04T12:07:18;18.30;99.90
8178;DHT22;4130;48.740;9.132;2022-10-04T12:09:54;18.20;99.90
8178;DHT22;4130;48.740;9.132;2022-10-04T12:12:44;18.30;99.90
8178;DHT22;4130;48.740;9.132;2022-10-04T12:21:34;18.70;99.90
8178;DHT22;4130;48.740;9.132;2022-10-04T12:24:33;18.90;99.90
8178;DHT22;4130;48.740;9.132;2022-10-04T12:27:26;19.10;99.90
8178;DHT22;4130;48.740;9.132;2022-10-04T12:30:13;19.10;99.90
8178;DHT22;4130;48.740;9.132;2022-10-04T12:32:44;18.90;99.90
8178;DHT22;4130;48.740;9.132;2022-10-04T12:35:23;19.20;99.90
8178;DHT22;4130;48.740;9.132;2022-10-04T12:38:17;18.70;99.90
8178;DHT22;4130;48.740;9.132;2022-10-04T12:40:51;18.70;99.90
8178;DHT22;4130;48.740;9.132;2022-10-04T12:43:26;18.70;99.90
8178;DHT22;4130;48.740;9.132;2022-10-04T12:46:06;18.60;99.90
8178;DHT22;4130;48.740;9.132;2022-10-04T12:48:55;18.70;99.90
8178;DHT22;4130;48.740;9.132;2022-10-04T12:51:34;18.80;99.90
8178;DHT22;4130;48.740;9.132;2022-10-04T12:54:15;18.50;99.90
8178;DHT22;4130;48.740;9.132;2022-10-04T12:56:46;18.50;99.90
8178;DHT22;4130;48.740;9.132;2022-10-04T12:59:39;18.30;99.90
8178;DHT22;4130;48.740;9.132;2022-10-04T13:02:22;18.10;99.90
8178;DHT22;4130;48.740;9.132;2022-10-04T13:04:54;18.00;99.90
8178;DHT22;4130;48.740;9.132;2022-10-04T13:07:41;17.90;99.90
8178;DHT22;4130;48.740;9.132;2022-10-04T13:10:21;18.00;99.90
8178;DHT22;4130;48.740;9.132;2022-10-04T13:13:13;18.10;99.90
8178;DHT22;4130;48.740;9.132;2022-10-04T13:15:51;18.20;99.90
8178;DHT22;4130;48.740;9.132;2022-10-04T13:18:25;18.20;99.90
8178;DHT22;4130;48.740;9.132;2022-10-04T13:20:59;18.20;99.90
8178;DHT22;4130;48.740;9.132;2022-10-04T13:23:36;18.20;99.90
8178;DHT22;4130;48.740;9.132;2022-10-04T13:26:26;18.20;99.90
8178;DHT22;4130;48.740;9.132;2022-10-04T13:28:59;18.10;99.90
8178;DHT22;4130;48.740;9.132;2022-10-04T13:31:33;18.20;99.90
8178;DHT22;4130;48.740;9.132;2022-10-04T13:34:09;18.00;99.90
8178;DHT22;4130;48.740;9.132;2022-10-04T13:36:50;18.00;99.90
8178;DHT22;4130;48.740;9.132;2022-10-04T13:39:33;18.20;99.90
8178;DHT22;4130;48.740;9.132;2022-10-04T13:42:23;17.90;99.90
8178;DHT22;4130;48.740;9.132;2022-10-04T13:45:10;17.90;99.90
8178;DHT22;4130;48.740;9.132;2022-10-04T13:47:55;17.90;99.90
8178;DHT22;4130;48.740;9.132;2022-10-04T13:50:31;18.00;99.90
8178;DHT22;4130;48.740;9.132;2022-10-04T13:53:11;17.90;99.90
8178;DHT22;4130;48.740;9.132;2022-10-04T13:56:03;18.00;99.90
8178;DHT22;4130;48.740;9.132;2022-10-04T13:58:54;18.00;99.90
8178;DHT22;4130;48.740;9.132;2022-10-04T14:04:41;17.90;99.90
8178;DHT22;4130;48.740;9.132;2022-10-04T14:07:42;17.90;99.90
8178;DHT22;4130;48.740;9.132;2022-10-04T14:10:36;17.90;99.90
8178;DHT22;4130;48.740;9.132;2022-10-04T14:13:31;17.90;99.90
8178;DHT22;4130;48.740;9.132;2022-10-04T14:16:24;17.90;99.90
8178;DHT22;4130;48.740;9.132;2022-10-04T14:19:18;18.00;99.90
8178;DHT22;4130;48.740;9.132;2022-10-04T14:22:28;18.00;99.90
8178;DHT22;4130;48.740;9.132;2022-10-04T14:25:34;18.00;99.90
8178;DHT22;4130;48.740;9.132;2022-10-04T14:28:41;18.00;99.90
8178;DHT22;4130;48.740;9.132;2022-10-04T14:31:23;17.90;99.90
8178;DHT22;4130;48.740;9.132;2022-10-04T14:34:17;17.80;99.90
8178;DHT22;4130;48.740;9.132;2022-10-04T14:37:09;17.80;99.90
8178;DHT22;4130;48.740;9.132;2022-10-04T14:40:15;17.80;99.90
8178;DHT22;4130;48.740;9.132;2022-10-04T14:42:55;17.70;99.90
8178;DHT22;4130;48.740;9.132;2022-10-04T14:45:34;17.70;99.90
8178;DHT22;4130;48.740;9.132;2022-10-04T14:48:19;17.80;99.90
8178;DHT22;4130;48.740;9.132;2022-10-04T14:50:58;17.80;99.90
8178;DHT22;4130;48.740;9.132;2022-10-04T14:53:35;17.80;99.90
8178;DHT22;4130;48.740;9.132;2022-10-04T14:56:27;17.80;99.90
8178;DHT22;4130;48.740;9.132;2022-10-04T14:59:04;17.70;99.90
8178;DHT22;4130;48.740;9.132;2022-10-04T15:01:35;17.80;99.90
8178;DHT22;4130;48.740;9.132;2022-10-04T15:04:18;17.90;99.90
8178;DHT22;4130;48.740;9.132;2022-10-04T15:06:50;18.30;99.90
8178;DHT22;4130;48.740;9.132;2022-10-04T15:09:48;17.70;99.90
8178;DHT22;4130;48.740;9.132;2022-10-04T15:15:21;17.70;99.90
8178;DHT22;4130;48.740;9.132;2022-10-04T15:17:59;17.70;99.90
8178;DHT22;4130;48.740;9.132;2022-10-04T15:20:33;17.70;99.90
8178;DHT22;4130;48.740;9.132;2022-10-04T15:23:13;17.60;99.90
8178;DHT22;4130;48.740;9.132;2022-10-04T15:25:42;17.60;99.90
8178;DHT22;4130;48.740;9.132;2022-10-04T15:28:26;17.60;99.90
8178;DHT22;4130;48.740;9.132;2022-10-04T15:31:01;17.50;99.90
8178;DHT22;4130;48.740;9.132;2022-10-04T15:33:37;17.50;99.90
8178;DHT22;4130;48.740;9.132;2022-10-04T15:36:29;17.40;99.90
8178;DHT22;4130;48.740;9.132;2022-10-04T15:39:20;17.40;99.90
8178;DHT22;4130;48.740;9.132;2022-10-04T15:41:56;17.40;99.90
8178;DHT22;4130;48.740;9.132;2022-10-04T15:44:51;17.40;99.90
8178;DHT22;4130;48.740;9.132;2022-10-04T15:47:22;17.30;99.90
8178;DHT22;4130;48.740;9.132;2022-10-04T15:49:59;17.20;99.90
8178;DHT22;4130;48.740;9.132;2022-10-04T15:56:00;17.00;99.90
8178;DHT22;4130;48.740;9.132;2022-10-04T16:01:39;16.90;99.90
8178;DHT22;4130;48.740;9.132;2022-10-04T16:07:31;16.60;99.90
8178;DHT22;4130;48.740;9.132;2022-10-04T16:10:14;16.40;99.90
8178;DHT22;4130;48.740;9.132;2022-10-04T16:13:16;16.30;99.90
8178;DHT22;4130;48.740;9.132;2022-10-04T16:19:01;16.00;99.90
8178;DHT22;4130;48.740;9.132;2022-10-04T16:21:31;15.80;99.90
8178;DHT22;4130;48.740;9.132;2022-10-04T16:24:32;15.70;99.90
8178;DHT22;4130;48.740;9.132;2022-10-04T16:30:21;15.30;99.90
8178;DHT22;4130;48.740;9.132;2022-10-04T16:33:04;15.20;99.90
8178;DHT22;4130;48.740;9.132;2022-10-04T16:35:40;14.80;99.90
8178;DHT22;4130;48.740;9.132;2022-10-04T16:38:19;14.70;99.90
8178;DHT22;4130;48.740;9.132;2022-10-04T16:41:00;14.60;99.90
8178;DHT22;4130;48.740;9.132;2022-10-04T16:43:33;14.50;99.90
8178;DHT22;4130;48.740;9.132;2022-10-04T16:46:11;14.30;99.90
8178;DHT22;4130;48.740;9.132;2022-10-04T16:48:49;14.10;99.90
8178;DHT22;4130;48.740;9.132;2022-10-04T16:51:32;14.00;99.90
8178;DHT22;4130;48.740;9.132;2022-10-04T16:54:07;13.80;99.90
8178;DHT22;4130;48.740;9.132;2022-10-04T16:57:14;13.60;99.90
8178;DHT22;4130;48.740;9.132;2022-10-04T16:59:47;13.50;99.90
8178;DHT22;4130;48.740;9.132;2022-10-04T17:02:45;13.30;99.90
8178;DHT22;4130;48.740;9.132;2022-10-04T17:05:19;13.10;99.90
8178;DHT22;4130;48.740;9.132;2022-10-04T17:08:07;13.00;99.90
8178;DHT22;4130;48.740;9.132;2022-10-04T17:10:43;12.80;99.90
8178;DHT22;4130;48.740;9.132;2022-10-04T17:13:21;12.60;99.90
8178;DHT22;4130;48.740;9.132;2022-10-04T17:15:58;12.50;99.90
8178;DHT22;4130;48.740;9.132;2022-10-04T17:18:35;12.40;99.90
8178;DHT22;4130;48.740;9.132;2022-10-04T17:21:11;12.30;99.90
8178;DHT22;4130;48.740;9.132;2022-10-04T17:24:00;12.20;99.90
8178;DHT22;4130;48.740;9.132;2022-10-04T17:26:45;12.10;99.90
8178;DHT22;4130;48.740;9.132;2022-10-04T17:29:29;12.10;99.90
8178;DHT22;4130;48.740;9.132;2022-10-04T17:32:04;11.90;99.90
8178;DHT22;4130;48.740;9.132;2022-10-04T17:34:44;11.80;99.90
8178;DHT22;4130;48.740;9.132;2022-10-04T17:37:22;11.70;99.90
8178;DHT22;4130;48.740;9.132;2022-10-04T17:39:53;11.60;99.90
8178;DHT22;4130;48.740;9.132;2022-10-04T17:42:32;11.60;99.90
8178;DHT22;4130;48.740;9.132;2022-10-04T17:47:57;11.50;99.90
8178;DHT22;4130;48.740;9.132;2022-10-04T17:50:53;11.50;99.90
8178;DHT22;4130;48.740;9.132;2022-10-04T17:53:42;11.30;99.90
8178;DHT22;4130;48.740;9.132;2022-10-04T17:56:32;11.20;99.90
8178;DHT22;4130;48.740;9.132;2022-10-04T17:59:05;11.20;99.90
8178;DHT22;4130;48.740;9.132;2022-10-04T18:01:36;11.10;99.90
8178;DHT22;4130;48.740;9.132;2022-10-04T18:04:08;11.10;99.90
8178;DHT22;4130;48.740;9.132;2022-10-04T18:06:48;11.00;99.90
8178;DHT22;4130;48.740;9.132;2022-10-04T18:09:21;11.00;99.90
8178;DHT22;4130;48.740;9.132;2022-10-04T18:11:54;10.90;99.90
8178;DHT22;4130;48.740;9.132;2022-10-04T18:14:42;10.80;99.90
8178;DHT22;4130;48.740;9.132;2022-10-04T18:17:24;10.80;99.90
8178;DHT22;4130;48.740;9.132;2022-10-04T18:20:01;10.70;99.90
8178;DHT22;4130;48.740;9.132;2022-10-04T18:22:45;10.80;99.90
8178;DHT22;4130;48.740;9.132;2022-10-04T18:25:14;10.70;99.90
8178;DHT22;4130;48.740;9.132;2022-10-04T18:27:50;10.70;99.90
8178;DHT22;4130;48.740;9.132;2022-10-04T18:30:18;10.60;99.90
8178;DHT22;4130;48.740;9.132;2022-10-04T18:32:47;10.60;99.90
8178;DHT22;4130;48.740;9.132;2022-10-04T18:35:22;10.50;99.90
8178;DHT22;4130;48.740;9.132;2022-10-04T18:37:53;10.40;99.90
8178;DHT22;4130;48.740;9.132;2022-10-04T18:40:22;10.40;99.90
8178;DHT22;4130;48.740;9.132;2022-10-04T18:42:52;10.40;99.90
8178;DHT22;4130;48.740;9.132;2022-10-04T18:45:23;10.30;99.90
8178;DHT22;4130;48.740;9.132;2022-10-04T18:47:50;10.20;99.90